Time;durP1;ratioP1;P1;durP2;ratioP2;P2;SDS_P1;SDS_P2;PMS_P1;PMS_P2;Temp;Humidity;BMP_temperature;BMP_pressure;BME280_temperature;BME280_humidity;BME280_pressure;Samples;Min_cycle;Max_cycle;Signal;HPM_P1;HPM_P2
2022/11/28 00:01:01;;;;;;;9.50;5.03;;;;;;;;;;5045336;28;20020;-77
2022/11/28 00:03:26;;;;;;;12.07;5.85;;;;;;;;;;5055023;28;20519;-77
2022/11/28 00:05:52;;;;;;;10.15;5.00;;;;;;;;;;5053518;28;20040;-77
2022/11/28 00:08:18;;;;;;;10.00;4.78;;;;;;;;;;5055278;28;20083;-77
2022/11/28 00:10:44;;;;;;;14.65;5.68;;;;;;;;;;5052268;28;20036;-77
2022/11/28 00:13:10;;;;;;;14.65;5.45;;;;;;;;;;5057875;28;20029;-77
2022/11/28 00:15:36;;;;;;;10.38;4.85;;;;;;;;;;5055330;28;20033;-77
2022/11/28 00:18:02;;;;;;;12.98;5.60;;;;;;;;;;5062103;28;20028;-76
2022/11/28 00:20:29;;;;;;;10.88;5.82;;;;;;;;;;5056421;28;20040;-76
2022/11/28 00:22:55;;;;;;;12.98;5.60;;;;;;;;;;5063414;28;20036;-76
2022/11/28 00:25:21;;;;;;;13.45;5.20;;;;;;;;;;5066892;28;20094;-76
2022/11/28 00:27:47;;;;;;;10.85;5.30;;;;;;;;;;5064432;28;20025;-77
2022/11/28 00:30:13;;;;;;;12.70;6.10;;;;;;;;;;5063404;28;20380;-76
2022/11/28 00:32:39;;;;;;;11.07;5.75;;;;;;;;;;5050382;28;20124;-77
2022/11/28 00:35:08;;;;;;;15.63;5.85;;;;;;;;;;5060350;28;20020;-76
2022/11/28 00:37:34;;;;;;;12.20;5.60;;;;;;;;;;5051728;28;20060;-77
2022/11/28 00:40:00;;;;;;;11.50;6.00;;;;;;;;;;5054754;28;20040;-76
2022/11/28 00:42:26;;;;;;;18.08;6.22;;;;;;;;;;5056168;28;21077;-77
2022/11/28 00:44:52;;;;;;;12.77;6.03;;;;;;;;;;5054740;28;20055;-77
2022/11/28 00:47:17;;;;;;;13.45;6.18;;;;;;;;;;5052347;28;20033;-76
2022/11/28 00:49:44;;;;;;;13.98;6.47;;;;;;;;;;5058738;28;20056;-76
2022/11/28 00:52:09;;;;;;;14.23;6.18;;;;;;;;;;5051427;28;20024;-76
2022/11/28 00:54:35;;;;;;;15.73;6.85;;;;;;;;;;5053818;28;20110;-76
2022/11/28 00:57:01;;;;;;;11.98;6.07;;;;;;;;;;5054468;28;20112;-76
2022/11/28 00:59:27;;;;;;;13.65;5.50;;;;;;;;;;5058798;28;20116;-76
2022/11/28 01:01:53;;;;;;;12.80;6.35;;;;;;;;;;5055289;28;20466;-76
2022/11/28 01:04:19;;;;;;;12.15;5.68;;;;;;;;;;5054873;28;20557;-77
2022/11/28 01:06:46;;;;;;;14.63;6.25;;;;;;;;;;5054304;28;20035;-77
2022/11/28 01:09:16;;;;;;;20.52;6.45;;;;;;;;;;5058379;28;20506;-76
2022/11/28 01:11:43;;;;;;;13.47;6.77;;;;;;;;;;5052052;28;20024;-76
2022/11/28 01:14:09;;;;;;;11.82;6.00;;;;;;;;;;5054469;28;20040;-77
2022/11/28 01:16:35;;;;;;;13.75;5.60;;;;;;;;;;5057524;28;20475;-78
2022/11/28 01:19:01;;;;;;;18.02;6.10;;;;;;;;;;5060703;28;20047;-78
2022/11/28 01:21:27;;;;;;;12.70;5.68;;;;;;;;;;5051213;28;20025;-77
2022/11/28 01:23:53;;;;;;;12.25;5.80;;;;;;;;;;5056000;28;20108;-77
2022/11/28 01:26:24;;;;;;;12.73;5.50;;;;;;;;;;5055896;28;20162;-77
2022/11/28 01:28:50;;;;;;;15.05;5.72;;;;;;;;;;5055742;28;20043;-77
2022/11/28 01:31:16;;;;;;;13.23;5.72;;;;;;;;;;5051193;28;20037;-78
2022/11/28 01:33:42;;;;;;;10.52;5.30;;;;;;;;;;5053761;28;20032;-77
2022/11/28 01:36:10;;;;;;;14.52;5.95;;;;;;;;;;5056240;28;20028;-77
2022/11/28 01:38:36;;;;;;;13.93;5.28;;;;;;;;;;5055134;28;20020;-77
2022/11/28 01:41:02;;;;;;;8.98;4.88;;;;;;;;;;5060026;28;20032;-77
2022/11/28 01:43:28;;;;;;;11.88;5.60;;;;;;;;;;5056112;28;20025;-77
2022/11/28 01:45:54;;;;;;;11.80;6.22;;;;;;;;;;5051519;28;20101;-77
2022/11/28 01:48:24;;;;;;;11.05;5.55;;;;;;;;;;5056256;28;20599;-77
2022/11/28 01:50:54;;;;;;;11.75;5.13;;;7.60;99.90;;;;;;5052348;28;20058;-77
2022/11/28 01:53:20;;;;;;;14.43;5.47;;;;;;;;;;5057901;28;20127;-77
2022/11/28 01:55:56;;;;;;;12.88;5.25;;;;;;;;;;5054718;28;20029;-77
2022/11/28 01:58:23;;;;;;;18.10;5.70;;;;;;;;;;5053546;28;20078;-77
2022/11/28 02:00:49;;;;;;;12.25;5.60;;;;;;;;;;5056724;28;20021;-77
2022/11/28 02:03:17;;;;;;;10.52;5.47;;;;;;;;;;5057913;28;20024;-77
2022/11/28 02:05:43;;;;;;;9.82;5.10;;;;;;;;;;5056480;28;20024;-77
2022/11/28 02:08:09;;;;;;;8.23;4.88;;;;;;;;;;5053160;28;20154;-77
2022/11/28 02:10:43;;;;;;;8.05;4.65;;;;;;;;;;5055078;28;20024;-77
2022/11/28 02:13:18;;;;;;;18.02;5.03;;;;;;;;;;5056237;28;20686;-78
2022/11/28 02:16:02;;;;;;;13.90;5.10;;;;;;;;;;5055528;28;21189;-77
2022/11/28 02:18:43;;;;;;;13.15;4.40;;;;;;;;;;5053813;28;20094;-77
2022/11/28 02:21:27;;;;;;;11.93;4.80;;;;;;;;;;5056722;28;20107;-77
2022/11/28 02:24:16;;;;;;;14.25;5.32;;;;;;;;;;5055094;28;20028;-77
2022/11/28 02:26:49;;;;;;;11.55;5.15;;;;;;;;;;5060341;28;20108;-77
2022/11/28 02:29:35;;;;;;;13.52;5.25;;;;;;;;;;5060086;28;20033;-77
2022/11/28 02:32:09;;;;;;;10.88;4.68;;;;;;;;;;5047806;28;20687;-77
2022/11/28 02:34:47;;;;;;;9.25;4.38;;;;;;;;;;5053666;28;20040;-77
2022/11/28 02:37:30;;;;;;;13.45;4.93;;;;;;;;;;5056199;28;20033;-77
2022/11/28 02:39:59;;;;;;;15.35;5.15;;;;;;;;;;5057440;28;20040;-77
2022/11/28 02:42:30;;;;;;;11.27;4.28;;;;;;;;;;5056940;28;20156;-77
2022/11/28 02:44:56;;;;;;;;;;;;;;;;;;5057127;28;20029;-77
2022/11/28 02:47:29;;;;;;;8.02;4.68;;;;;;;;;;5054510;28;20418;-77
2022/11/28 02:50:08;;;;;;;12.45;5.03;;;;;;;;;;5055636;28;20495;-77
2022/11/28 02:52:39;;;;;;;13.10;5.25;;;;;;;;;;5058647;28;20033;-78
2022/11/28 02:55:06;;;;;;;10.57;4.78;;;;;;;;;;5060919;28;20081;-77
2022/11/28 02:57:39;;;;;;;9.98;4.63;;;;;;;;;;5063562;28;20029;-77
2022/11/28 03:00:42;;;;;;;10.45;4.38;;;;;;;;;;5063865;28;20060;-77
2022/11/28 03:03:21;;;;;;;9.68;4.85;;;;;;;;;;5033432;28;20053;-77
2022/11/28 03:05:56;;;;;;;10.45;4.78;;;;;;;;;;5052843;28;20045;-77
2022/11/28 03:08:35;;;;;;;12.85;5.63;;;;;;;;;;5052505;28;20407;-77
2022/11/28 03:11:05;;;;;;;10.77;5.28;;;;;;;;;;5056123;28;20032;-77
2022/11/28 03:13:43;;;;;;;12.05;5.78;;;;;;;;;;5055499;28;20024;-77
2022/11/28 03:16:29;;;;;;;11.43;5.00;;;;;;;;;;5057871;28;20618;-78
2022/11/28 03:18:55;;;;;;;10.23;4.80;;;;;;;;;;5057381;28;20025;-77
2022/11/28 03:21:24;;;;;;;13.63;5.97;;;;;;;;;;5062135;28;20015;-78
2022/11/28 03:23:53;;;;;;;13.57;5.72;;;;;;;;;;5053356;28;20301;-77
2022/11/28 03:26:24;;;;;;;10.48;4.85;;;;;;;;;;5055872;28;20546;-77
2022/11/28 03:29:08;;;;;;;14.32;5.78;;;;;;;;;;5057813;28;20033;-77
2022/11/28 03:31:48;;;;;;;11.57;6.07;;;;;;;;;;5059351;28;20386;-77
2022/11/28 03:34:17;;;;;;;11.40;5.65;;;;;;;;;;5053496;28;20039;-77
2022/11/28 03:36:56;;;;;;;14.15;6.22;;;;;;;;;;5056848;28;20035;-77
2022/11/28 03:39:25;;;;;;;13.93;6.00;;;;;;;;;;5060978;28;20020;-78
2022/11/28 03:41:53;;;;;;;11.77;5.38;;;;;;;;;;5058303;28;20075;-77
2022/11/28 03:44:27;;;;;;;12.75;6.00;;;;;;;;;;5057120;28;20151;-77
2022/11/28 03:46:54;;;;;;;17.67;6.13;;;;;;;;;;5054464;28;20439;-77
2022/11/28 03:49:24;;;;;;;14.85;6.53;;;;;;;;;;5056540;28;20052;-77
2022/11/28 03:51:57;;;;;;;16.65;5.90;;;;;;;;;;5058686;28;20039;-77
2022/11/28 03:54:46;;;;;;;14.48;5.68;;;;;;;;;;5056931;28;20036;-77
2022/11/28 03:57:14;;;;;;;14.73;5.28;;;;;;;;;;5059895;28;20043;-77
2022/11/28 03:59:42;;;;;;;16.23;6.50;;;;;;;;;;5061861;28;20024;-77
2022/11/28 04:02:27;;;;;;;12.48;6.03;;;;;;;;;;5055181;28;20023;-77
2022/11/28 04:04:58;;;;;;;11.85;5.40;;;;;;;;;;5052401;28;20071;-78
2022/11/28 04:07:31;;;;;;;16.40;6.10;;;;;;;;;;5057601;28;20058;-77
2022/11/28 04:10:03;;;;;;;12.50;6.30;;;;;;;;;;5055824;28;20090;-77
2022/11/28 04:12:52;;;;;;;12.30;5.45;;;;;;;;;;5050210;28;20031;-78
2022/11/28 04:15:22;;;;;;;13.35;5.72;;;;;;;;;;5054517;28;20036;-77
2022/11/28 04:17:48;;;;;;;17.17;5.60;;;;;;;;;;5059287;28;20029;-77
2022/11/28 04:20:20;;;;;;;12.32;5.07;;;;;;;;;;5060200;28;20066;-78
2022/11/28 04:22:53;;;;;;;10.73;5.40;;;;;;;;;;5060276;28;20035;-75
2022/11/28 04:25:20;;;;;;;19.92;6.40;;;;;;;;;;5057652;28;20028;-76
2022/11/28 04:28:01;;;;;;;15.18;6.15;;;;;;;;;;5057821;28;20021;-77
2022/11/28 04:30:26;;;;;;;17.75;6.43;;;;;;;;;;5051329;28;20030;-77
2022/11/28 04:32:55;;;;;;;14.60;5.60;;;;;;;;;;5058450;28;20039;-77
2022/11/28 04:35:33;;;;;;;13.00;5.70;;;;;;;;;;5053157;28;20037;-77
2022/11/28 04:37:59;;;;;;;14.95;5.15;;;;;;;;;;5054775;28;20032;-76
2022/11/28 04:40:26;;;;;;;16.08;5.88;;;;;;;;;;5062495;28;20975;-77
2022/11/28 04:42:55;;;;;;;10.82;5.97;;;;;;;;;;5056220;28;20017;-77
2022/11/28 04:45:30;;;;;;;14.20;5.95;;;;;;;;;;5058917;28;20036;-77
2022/11/28 04:47:56;;;;;;;18.17;6.57;;;;;;;;;;5048187;28;20029;-77
2022/11/28 04:50:25;;;;;;;13.48;5.88;;;;;;;;;;5059883;28;20689;-78
2022/11/28 04:53:08;;;;;;;12.35;5.63;;;;;;;;;;5057234;28;20513;-77
2022/11/28 04:55:43;;;;;;;14.75;5.65;;;;;;;;;;5054447;28;20025;-77
2022/11/28 04:58:12;;;;;;;16.30;5.25;;;;;;;;;;5065069;28;20107;-76
2022/11/28 05:00:38;;;;;;;14.43;5.38;;;;;;;;;;5057112;28;20529;-77
2022/11/28 05:03:05;;;;;;;16.42;6.20;;;;;;;;;;5058353;28;20432;-77
2022/11/28 05:05:31;;;;;;;12.18;5.45;;;;;;;;;;5060229;28;20017;-77
2022/11/28 05:07:58;;;;;;;14.80;5.90;;;;;;;;;;5064117;28;20113;-77
2022/11/28 05:10:24;;;;;;;14.13;5.40;;;;;;;;;;5060794;28;20028;-77
2022/11/28 05:12:50;;;;;;;10.75;5.07;;;;;;;;;;5061902;28;20028;-76
2022/11/28 05:15:17;;;;;;;14.70;6.47;;;;;;;;;;5055999;28;20037;-78
2022/11/28 05:17:44;;;;;;;13.82;6.20;;;;;;;;;;5057185;28;20173;-78
2022/11/28 05:20:10;;;;;;;12.63;5.15;;;;;;;;;;5053676;28;20074;-77
2022/11/28 05:22:36;;;;;;;13.15;5.97;;;;;;;;;;5059596;28;20067;-78
2022/11/28 05:25:05;;;;;;;14.60;6.13;;;;;;;;;;5058800;28;20230;-78
2022/11/28 05:27:31;;;;;;;13.68;5.55;;;;;;;;;;5061195;28;20021;-78
2022/11/28 05:29:57;;;;;;;13.40;6.13;;;;;;;;;;5056376;28;20028;-77
2022/11/28 05:32:23;;;;;;;13.60;5.65;;;;;;;;;;5059883;28;20028;-78
2022/11/28 05:34:49;;;;;;;15.40;5.93;;;;;;;;;;5055573;28;20050;-77
2022/11/28 05:37:15;;;;;;;17.50;6.20;;;;;;;;;;5061194;28;20475;-77
2022/11/28 05:39:41;;;;;;;14.40;6.28;;;;;;;;;;5057239;28;20025;-78
2022/11/28 05:42:07;;;;;;;11.63;5.20;;;;;;;;;;5057485;28;20021;-76
2022/11/28 05:44:32;;;;;;;14.20;6.28;;;;;;;;;;5059907;28;20021;-76
2022/11/28 05:46:58;;;;;;;13.63;5.55;;;;;;;;;;5048344;28;20033;-76
2022/11/28 05:49:25;;;;;;;13.88;5.45;;;;;;;;;;5057514;28;20388;-76
2022/11/28 05:51:51;;;;;;;14.55;5.30;;;;;;;;;;5057091;28;20040;-76
2022/11/28 05:54:16;;;;;;;15.40;5.82;;;;;;;;;;5059445;28;20273;-76
2022/11/28 05:56:42;;;;;;;16.95;6.50;;;;;;;;;;5058309;28;20028;-77
2022/11/28 05:59:08;;;;;;;10.93;5.28;;;;;;;;;;5052354;28;20475;-76
2022/11/28 06:01:34;;;;;;;11.88;5.63;;;;;;;;;;5058511;28;20039;-76
2022/11/28 06:04:00;;;;;;;12.57;5.35;;;;;;;;;;5057909;28;20119;-76
2022/11/28 06:06:30;;;;;;;19.63;5.78;;;;;;;;;;5058269;28;20032;-76
2022/11/28 06:08:56;;;;;;;14.27;5.28;;;;;;;;;;5055096;28;20029;-76
2022/11/28 06:11:23;;;;;;;14.02;6.10;;;;;;;;;;5062409;28;20600;-76
2022/11/28 06:13:50;;;;;;;12.98;5.93;;;;;;;;;;5054564;28;20032;-76
2022/11/28 06:16:17;;;;;;;13.75;5.90;;;;;;;;;;5061864;28;20041;-77
2022/11/28 06:18:43;;;;;;;13.07;5.38;;;;;;;;;;5057577;28;20029;-77
2022/11/28 06:21:10;;;;;;;16.70;6.93;;;;;;;;;;5056523;28;20017;-77
2022/11/28 06:23:36;;;;;;;13.45;5.72;;;;;;;;;;5056409;28;20021;-77
2022/11/28 06:26:06;;;;;;;11.77;5.63;;;;;;;;;;5050393;28;20054;-78
2022/11/28 06:28:33;;;;;;;13.60;6.15;;;;;;;;;;5051128;28;20495;-77
2022/11/28 06:30:59;;;;;;;11.77;5.13;;;;;;;;;;5052083;28;20025;-77
2022/11/28 06:33:25;;;;;;;16.13;5.90;;;;;;;;;;5054931;28;20376;-77
2022/11/28 06:35:50;;;;;;;18.83;5.90;;;;;;;;;;5054740;28;20107;-81
2022/11/28 06:38:16;;;;;;;15.75;6.25;;;;;;;;;;5055020;28;20086;-79
2022/11/28 06:40:42;;;;;;;14.23;6.13;;;;;;;;;;5054740;28;20048;-77
2022/11/28 06:43:08;;;;;;;14.10;6.72;;;;;;;;;;5057915;28;20372;-78
2022/11/28 06:45:35;;;;;;;13.50;6.47;;;;;;;;;;5060744;28;20028;-77
2022/11/28 06:48:01;;;;;;;15.23;6.90;;;;;;;;;;5056613;28;20032;-78
2022/11/28 06:50:27;;;;;;;18.50;6.72;;;;;;;;;;5064758;28;20106;-78
2022/11/28 06:52:56;;;;;;;14.77;6.05;;;;;;;;;;5056480;28;20033;-78
2022/11/28 06:55:22;;;;;;;15.70;6.70;;;;;;;;;;5064161;28;20535;-78
2022/11/28 06:57:48;;;;;;;15.77;6.82;;;;;;;;;;5059080;28;20379;-79
2022/11/28 07:00:14;;;;;;;19.92;7.10;;;;;;;;;;5059478;28;20028;-82
2022/11/28 07:02:40;;;;;;;14.32;6.32;;;;;;;;;;5060309;28;20502;-78
2022/11/28 07:05:06;;;;;;;18.27;6.40;;;;;;;;;;5061721;28;20035;-75
2022/11/28 07:07:32;;;;;;;20.23;6.93;;;;;;;;;;5063806;28;20068;-75
2022/11/28 07:09:58;;;;;;;18.13;6.75;;;;;;;;;;5061936;28;20048;-75
2022/11/28 07:12:24;;;;;;;15.90;7.97;;;;;;;;;;5061622;28;20520;-76
2022/11/28 07:14:50;;;;;;;15.15;6.20;;;;;;;;;;5056889;28;20281;-76
2022/11/28 07:17:16;;;;;;;22.58;7.28;;;;;;;;;;5057910;28;20688;-75
2022/11/28 07:19:42;;;;;;;18.35;6.95;;;;;;;;;;5059744;28;21132;-75
2022/11/28 07:22:10;;;;;;;19.60;6.75;;;;;;;;;;5062698;28;20023;-75
2022/11/28 07:24:36;;;;;;;15.88;6.78;;;;;;;;;;5059628;28;20389;-76
2022/11/28 07:27:04;;;;;;;21.20;7.15;;;;;;;;;;5061526;28;20492;-75
2022/11/28 07:29:35;;;;;;;14.90;6.88;;;;;;;;;;5062752;28;20044;-74
2022/11/28 07:32:01;;;;;;;15.53;6.20;;;;;;;;;;5062229;28;20370;-75
2022/11/28 07:34:27;;;;;;;12.98;6.57;;;;;;;;;;5065343;28;20205;-76
2022/11/28 07:36:53;;;;;;;15.60;6.18;;;;;;;;;;5065587;28;20071;-75
2022/11/28 07:39:19;;;;;;;14.65;5.95;;;;;;;;;;5065383;28;20039;-74
2022/11/28 07:41:45;;;;;;;14.75;5.93;;;;;;;;;;5066335;28;20123;-75
2022/11/28 07:44:16;;;;;;;14.40;6.47;;;;;;;;;;5065326;28;20037;-75
2022/11/28 07:46:42;;;;;;;17.20;5.90;;;;;;;;;;5065717;28;20515;-75
2022/11/28 07:49:08;;;;;;;17.27;7.25;;;;;;;;;;5064949;28;20717;-74
2022/11/28 07:51:34;;;;;;;17.70;6.15;;;;;;;;;;5063887;28;20036;-76
2022/11/28 07:54:00;;;;;;;18.08;6.70;;;;;;;;;;5064003;28;20391;-76
2022/11/28 07:56:28;;;;;;;16.40;6.82;;;;;;;;;;5062944;28;20028;-76
2022/11/28 07:58:54;;;;;;;14.55;6.72;;;;;;;;;;5065029;28;20025;-77
2022/11/28 08:01:21;;;;;;;15.45;6.10;;;;;;;;;;5062690;28;20016;-76
2022/11/28 08:03:47;;;;;;;13.82;6.10;;;;;;;;;;5065465;28;20557;-76
2022/11/28 08:06:15;;;;;;;15.60;6.35;;;;;;;;;;5065589;28;20020;-76
2022/11/28 08:08:41;;;;;;;13.25;5.80;;;;;;;;;;5061274;28;20063;-76
2022/11/28 08:11:08;;;;;;;18.80;7.47;;;;;;;;;;5058170;28;20036;-77
2022/11/28 08:13:34;;;;;;;19.08;6.35;;;;;;;;;;5062830;28;20032;-75
2022/11/28 08:16:12;;;;;;;18.92;7.15;;;;;;;;;;5066715;28;20036;-76
2022/11/28 08:18:38;;;;;;;18.02;6.60;;;;;;;;;;5061789;28;20025;-75
2022/11/28 08:21:05;;;;;;;27.33;7.03;;;;;;;;;;5065148;28;20073;-75
2022/11/28 08:23:32;;;;;;;18.95;7.28;;;;;;;;;;5062109;28;20037;-75
2022/11/28 08:25:59;;;;;;;19.67;6.68;;;;;;;;;;5067044;28;20028;-76
2022/11/28 08:28:25;;;;;;;14.32;6.20;;;;;;;;;;5064336;28;20024;-77
2022/11/28 08:31:02;;;;;;;17.65;7.47;;;;;;;;;;5059949;28;20020;-77
2022/11/28 08:33:28;;;;;;;18.88;6.68;;;;;;;;;;5060712;28;20024;-76
2022/11/28 08:35:54;;;;;;;19.17;7.00;;;;;;;;;;5063276;28;20491;-77
2022/11/28 08:38:20;;;;;;;17.23;7.07;;;;;;;;;;5066492;28;20025;-75
2022/11/28 08:40:46;;;;;;;15.43;6.40;;;;;;;;;;5064730;28;20024;-75
2022/11/28 08:43:13;;;;;;;22.30;7.30;;;;;;;;;;5064783;28;20566;-74
2022/11/28 08:45:39;;;;;;;19.88;7.50;;;;;;;;;;5061742;28;20206;-75
2022/11/28 08:48:05;;;;;;;22.08;7.68;;;;;;;;;;5064000;28;20503;-75
2022/11/28 08:50:31;;;;;;;19.08;7.65;;;;;;;;;;5061037;28;20122;-75
2022/11/28 08:52:57;;;;;;;14.25;6.15;;;;;;;;;;5061634;28;20579;-74
2022/11/28 08:55:23;;;;;;;16.17;7.15;;;;;;;;;;5059631;28;20082;-74
2022/11/28 08:57:49;;;;;;;17.85;6.72;;;;;;;;;;5064260;28;20039;-77
2022/11/28 09:00:16;;;;;;;17.13;5.95;;;;;;;;;;5062465;28;20055;-75
2022/11/28 09:02:42;;;;;;;15.10;6.95;;;;;;;;;;5065737;28;20040;-75
2022/11/28 09:05:14;;;;;;;13.38;6.55;;;;;;;;;;5059691;28;20449;-75
2022/11/28 09:07:40;;;;;;;25.15;7.10;;;;;;;;;;5058975;28;20586;-75
2022/11/28 09:10:06;;;;;;;18.38;6.38;;;;;;;;;;5065288;28;20431;-81
2022/11/28 09:12:35;;;;;;;18.17;7.28;;;;;;;;;;5065221;28;20062;-78
2022/11/28 09:15:19;;;;;;;17.50;6.93;;;;;;;;;;5055027;28;20032;-75
2022/11/28 09:17:45;;;;;;;17.50;7.38;;;;;;;;;;5060763;28;20029;-75
2022/11/28 09:20:12;;;;;;;15.23;6.57;;;;;;;;;;5056637;28;20032;-75
2022/11/28 09:22:38;;;;;;;13.35;6.43;;;;;;;;;;5058185;28;20043;-76
2022/11/28 09:25:04;;;;;;;16.85;6.53;;;;;;;;;;5058476;28;20008;-75
2022/11/28 09:27:30;;;;;;;16.42;7.40;;;;;;;;;;5055075;28;21395;-76
2022/11/28 09:29:56;;;;;;;14.45;6.72;;;;;;;;;;5064956;28;20016;-75
2022/11/28 09:32:22;;;;;;;17.02;6.80;;;;;;;;;;5066005;28;20592;-76
2022/11/28 09:34:49;;;;;;;16.83;7.20;;;;;;;;;;5059501;28;20043;-75
2022/11/28 09:37:15;;;;;;;22.63;6.22;;;;;;;;;;5055634;28;20134;-75
2022/11/28 09:39:41;;;;;;;18.88;6.55;;;;;;;;;;5055248;28;20107;-75
2022/11/28 09:42:11;;;;;;;17.15;7.10;;;;;;;;;;5065461;28;20024;-75
2022/11/28 09:44:42;;;;;;;13.40;6.53;;;;;;;;;;5064646;28;20475;-76
2022/11/28 09:47:13;;;;;;;15.25;6.63;;;;;;;;;;5061228;28;20035;-75
2022/11/28 09:49:47;;;;;;;17.67;6.30;;;;;;;;;;5059886;28;20044;-75
2022/11/28 09:52:25;;;;;;;21.00;7.30;;;;;;;;;;5061820;28;20056;-76
2022/11/28 09:54:58;;;;;;;19.17;7.30;;;;;;;;;;5055215;28;20037;-75
2022/11/28 09:57:31;;;;;;;22.40;8.35;;;;;;;;;;5060953;28;20029;-75
2022/11/28 09:59:57;;;;;;;21.42;7.75;;;;;;;;;;5064075;28;20541;-75
2022/11/28 10:02:37;;;;;;;15.57;7.55;;;;;;;;;;5062887;28;20028;-75
2022/11/28 10:05:15;;;;;;;17.63;7.35;;;;;;;;;;5059804;28;20025;-76
2022/11/28 10:08:10;;;;;;;20.00;7.50;;;;;;;;;;5057282;28;20033;-75
2022/11/28 10:10:49;;;;;;;17.50;7.28;;;;;;;;;;5033197;28;20630;-75
2022/11/28 10:13:36;;;;;;;14.70;7.35;;;;;;;;;;5059240;28;20110;-75
2022/11/28 10:16:02;;;;;;;20.70;7.55;;;;;;;;;;5060173;28;20029;-76
2022/11/28 10:18:33;;;;;;;18.17;6.25;;;;;;;;;;5053074;28;20028;-75
2022/11/28 10:21:02;;;;;;;20.00;6.90;;;;;;;;;;5063613;28;20104;-75
2022/11/28 10:23:32;;;;;;;15.23;6.65;;;;;;;;;;5066120;28;20487;-74
2022/11/28 10:26:08;;;;;;;18.52;7.70;;;;;;;;;;5062416;28;20029;-74
2022/11/28 10:28:35;;;;;;;20.85;7.13;;;;;;;;;;5060415;28;20422;-74
2022/11/28 10:31:20;;;;;;;15.43;7.47;;;;;;;;;;5059617;28;20107;-72
2022/11/28 10:33:55;;;;;;;16.90;6.85;;;;;;;;;;5060393;28;20021;-74
2022/11/28 10:36:27;;;;;;;15.32;7.00;;;;;;;;;;5057852;28;20021;-72
2022/11/28 10:38:53;;;;;;;23.27;7.13;;;;;;;;;;5061168;28;20020;-74
2022/11/28 10:41:27;;;;;;;14.35;6.18;;;;;;;;;;5064635;28;20036;-73
2022/11/28 10:44:02;;;;;;;22.55;7.20;;;;;;;;;;5065374;28;20028;-74
2022/11/28 10:46:39;;;;;;;20.52;7.22;;;;;;;;;;5064717;28;20028;-73
2022/11/28 10:49:24;;;;;;;23.40;6.93;;;;;;;;;;5060220;28;20506;-74
2022/11/28 10:52:16;;;;;;;21.15;7.28;;;;;;;;;;5064085;28;20207;-73
2022/11/28 10:54:45;;;;;;;19.50;6.57;;;;;;;;;;5064074;28;20048;-73
2022/11/28 10:57:16;;;;;;;16.38;7.25;;;;;;;;;;5063881;28;20033;-73
2022/11/28 10:59:49;;;;;;;17.25;7.15;;;;;;;;;;5063477;28;20020;-73
2022/11/28 11:02:26;;;;;;;15.02;6.85;;;;;;;;;;5062292;28;20033;-73
2022/11/28 11:04:52;;;;;;;13.52;6.63;;;;;;;;;;5056191;28;20035;-73
2022/11/28 11:07:23;;;;;;;18.30;7.63;;;;;;;;;;5065070;28;20051;-74
2022/11/28 11:09:50;;;;;;;15.55;7.40;;;;;;;;;;5062978;28;20352;-74
2022/11/28 11:12:20;;;;;;;11.73;6.18;;;;;;;;;;5065789;28;20127;-73
2022/11/28 11:14:46;;;;;;;18.85;7.57;;;;;;;;;;5065564;28;20024;-76
2022/11/28 11:17:25;;;;;;;21.25;7.75;;;;;;;;;;5066056;28;20043;-76
2022/11/28 11:19:51;;;;;;;17.75;6.30;;;;;;;;;;5058144;28;20416;-75
2022/11/28 11:22:22;;;;;;;17.88;7.40;;;;;;;;;;5067310;28;20067;-74
2022/11/28 11:25:14;;;;;;;18.73;6.80;;;;;;;;;;5065155;28;20020;-77
2022/11/28 11:27:50;;;;;;;23.75;7.90;;;;;;;;;;5063912;28;20033;-81
2022/11/28 11:30:32;;;;;;;17.05;7.20;;;;;;;;;;5063541;28;20556;-76
2022/11/28 11:32:59;;;;;;;20.95;7.13;;;;;;;;;;5067381;28;20059;-76
2022/11/28 11:35:27;;;;;;;19.00;7.32;;;;;;;;;;5065319;28;20115;-79
2022/11/28 11:37:53;;;;;;;15.35;6.80;;;;;;;;;;5067550;28;20104;-78
2022/11/28 11:40:19;;;;;;;16.88;8.13;;;;;;;;;;5063683;28;20475;-78
2022/11/28 11:43:01;;;;;;;19.92;7.68;;;;;;;;;;5058290;28;20030;-78
2022/11/28 11:45:29;;;;;;;15.70;7.28;;;;;;;;;;5066431;28;20035;-78
2022/11/28 11:47:55;;;;;;;12.68;5.93;;;;;;;;;;5068685;28;20399;-78
2022/11/28 11:50:46;;;;;;;13.85;6.43;;;;;;;;;;5066874;28;20045;-78
2022/11/28 11:53:09;;;;;;;34.70;13.93;;;;;;;;;;5063297;28;20039;-78
2022/11/28 11:55:39;;;;;;;19.95;8.20;;;;;;;;;;5067203;28;20028;-78
2022/11/28 11:58:06;;;;;;;20.25;8.05;;;;;;;;;;5070514;28;20036;-78
2022/11/28 12:00:39;;;;;;;20.23;8.32;;;;;;;;;;5069531;28;20039;-79
2022/11/28 12:03:11;;;;;;;22.30;9.02;;;;;;;;;;5062716;28;20027;-78
2022/11/28 12:05:44;;;;;;;29.27;9.55;;;;;;;;;;5069577;28;20112;-77
2022/11/28 12:08:19;;;;;;;17.50;8.25;;;;;;;;;;5070327;28;20364;-78
2022/11/28 12:10:47;;;;;;;13.88;7.78;;;;;;;;;;5069791;28;20024;-80
2022/11/28 12:13:21;;;;;;;22.90;8.43;;;;;;;;;;5067765;28;20388;-80
2022/11/28 12:16:10;;;;;;;15.93;7.70;;;;;;;;;;5068882;28;20498;-80
2022/11/28 12:18:48;;;;;;;19.85;7.80;;;;;;;;;;5068855;28;20031;-80
2022/11/28 12:21:34;;;;;;;16.00;7.05;;;;;;;;;;5068666;28;20032;-79
2022/11/28 12:24:08;;;;;;;14.88;7.10;;;;;;;;;;5063691;28;20033;-80
2022/11/28 12:26:44;;;;;;;11.90;5.95;;;;;;;;;;5066812;28;20031;-87
2022/11/28 12:29:19;;;;;;;15.35;6.68;;;;;;;;;;5063550;28;20035;-77
2022/11/28 12:31:51;;;;;;;14.30;6.47;;;;;;;;;;5066893;28;20033;-77
2022/11/28 12:34:20;;;;;;;16.10;6.72;;;;;;;;;;5062503;28;20036;-81
2022/11/28 12:37:05;;;;;;;17.08;6.20;;;;;;;;;;5065322;28;20071;-76
2022/11/28 12:39:49;;;;;;;15.38;6.05;;;;;;;;;;5065051;28;20032;-76
2022/11/28 12:42:33;;;;;;;17.33;6.72;;;;;;;;;;5065749;28;20024;-75
2022/11/28 12:45:24;;;;;;;12.80;5.78;;;;;;;;;;5059468;28;20021;-76
2022/11/28 12:48:09;;;;;;;15.25;5.70;;;;;;;;;;5062694;28;20060;-79
2022/11/28 12:50:42;;;;;;;15.27;7.07;;;;;;;;;;5051928;28;20107;-78
2022/11/28 12:53:26;;;;;;;17.05;6.75;;;;;;;;;;5067664;28;20090;-80
2022/11/28 12:55:56;;;;;;;16.85;8.07;;;;;;;;;;5061570;28;20025;-75
2022/11/28 12:58:38;;;;;;;17.08;7.25;;;;;;;;;;5060299;28;20081;-77
2022/11/28 13:01:04;;;;;;;;;;;;;;;;;;5058760;28;20091;-79
2022/11/28 13:03:30;;;;;;;;;;;;;;;;;;5068899;28;19912;-78
2022/11/28 13:05:56;;;;;;;;;;;;;;;;;;5066915;28;20256;-77
2022/11/28 13:08:22;;;;;;;;;;;;;;;;;;5064367;28;20660;-77
2022/11/28 13:10:47;;;;;;;;;;;;;;;;;;5062188;28;20565;-77
2022/11/28 13:13:13;;;;;;;;;;;;;;;;;;5064059;28;19922;-79
2022/11/28 13:15:39;;;;;;;;;;;;;;;;;;5063633;28;19912;-78
2022/11/28 13:18:05;;;;;;;;;;;;;;;;;;5059468;28;19923;-80
2022/11/28 13:20:31;;;;;;;;;;;;;;;;;;5059963;28;19941;-82
2022/11/28 13:22:57;;;;;;;;;;;;;;;;;;5060460;28;19957;-77
2022/11/28 13:25:23;;;;;;;;;;;;;;;;;;5062781;28;19912;-78
2022/11/28 13:27:49;;;;;;;;;;;;;;;;;;5070004;28;19904;-77
2022/11/28 13:30:15;;;;;;;;;;;;;;;;;;5065863;28;19908;-77
2022/11/28 13:32:41;;;;;;;;;;;;;;;;;;5066947;28;19924;-81
2022/11/28 13:35:06;;;;;;;;;;;;;;;;;;5064564;28;19908;-75
2022/11/28 13:37:32;;;;;;;;;;;;;;;;;;5065870;28;19920;-80
2022/11/28 13:40:21;;;;;;;;;;;4.60;99.90;;;;;;5067436;28;19927;-78
2022/11/28 13:42:55;;;;;;;;;;;6.10;99.90;;;;;;5053851;28;20385;-79
2022/11/28 13:45:39;;;;;;;;;;;6.00;99.90;;;;;;5066410;28;20007;-76
2022/11/28 13:48:23;;;;;;;;;;;6.00;99.90;;;;;;5065756;28;19912;-77
2022/11/28 13:51:07;;;;;;;;;;;6.10;99.90;;;;;;5066690;28;19916;-78
2022/11/28 13:53:32;;;;;;;;;;;6.10;99.90;;;;;;5067825;28;19908;-83
2022/11/28 13:56:04;;;;;;;;;;;6.10;99.90;;;;;;5059343;28;19916;-79
2022/11/28 13:58:38;;;;;;;;;;;6.10;99.90;;;;;;5066670;28;20325;-80
2022/11/28 14:01:06;;;;;;;;;;;6.10;99.90;;;;;;5062738;28;19912;-76
2022/11/28 14:03:33;;;;;;;;;;;6.00;99.90;;;;;;5064164;28;19916;-79
2022/11/28 14:06:00;;;;;;;;;;;5.90;99.90;;;;;;5062849;28;19912;-78
2022/11/28 14:08:36;;;;;;;;;;;5.80;99.90;;;;;;5065186;28;19989;-78
2022/11/28 14:11:28;;;;;;;;;;;5.70;99.90;;;;;;5066178;28;20360;-77
2022/11/28 14:14:08;;;;;;;;;;;5.70;99.90;;;;;;5056476;28;19916;-82
2022/11/28 14:16:55;;;;;;;;;;;5.60;99.90;;;;;;5065055;28;20477;-78
2022/11/28 14:19:40;;;;;;;;;;;5.50;99.90;;;;;;5061751;28;19960;-79
2022/11/28 14:22:23;;;;;;;;;;;5.50;99.90;;;;;;5061753;28;19996;-79
2022/11/28 14:24:54;;;;;;;;;;;5.50;99.90;;;;;;5066475;28;19940;-79
2022/11/28 14:27:22;;;;;;;;;;;5.50;99.90;;;;;;5062587;28;19912;-78
2022/11/28 14:29:50;;;;;;;;;;;5.40;99.90;;;;;;5058989;28;19923;-79
2022/11/28 14:32:35;;;;;;;;;;;5.40;99.90;;;;;;5053084;28;20290;-79
2022/11/28 14:35:01;;;;;;;;;;;5.40;99.90;;;;;;5055725;28;20353;-78
2022/11/28 14:37:28;;;;;;;;;;;5.40;99.90;;;;;;5057973;28;20275;-79
2022/11/28 14:39:54;;;;;;;;;;;5.20;99.90;;;;;;5055490;28;19908;-79
2022/11/28 14:42:21;;;;;;;;;;;5.20;99.90;;;;;;5061456;28;19916;-79
2022/11/28 14:44:54;;;;;;;;;;;5.20;99.90;;;;;;5059645;28;20282;-79
2022/11/28 14:47:19;;;;;;;;;;;5.20;99.90;;;;;;5062433;28;19909;-79
2022/11/28 14:49:45;;;;;;;;;;;5.10;99.90;;;;;;5055601;28;19925;-79
2022/11/28 14:52:21;;;;;;;;;;;5.10;99.90;;;;;;5064576;28;19924;-79
2022/11/28 14:54:49;;;;;;;;;;;5.10;99.90;;;;;;5056784;28;19923;-79